Thackeray, Illinois
Current Conditions -  °F | °C
As of 1:55 PM on Saturday 25 Oct 2014 (Local Time) from KFWC Reporting Station
Clear Clear  
Wind Chill: 78°   Ceiling: Unl
Heat Index: 79°   Visibility: 10mi
Dew Point: 55°   Wind: 3mph
Humidity: 46%   Direction: 250°WSW
Pressure: 29.99"   Gusts: NA
Location:  38.1018°N, 88.4953°W
Report Text: KFWC 251855Z AUTO 25003KT 10SM CLR 25/13 A2999 RMK AO1 T02540129
Loading
Personal Weather Stations






























Interactive Weather Map
Tropical Storm Tracking
New forecast layout! Learn more

10-Day Weather Forecast

Advertisements
Track Severe Weather on mobile